createdAt,value
2023-03-31T00:02:41.403Z,11.07
2023-03-31T00:05:48.093Z,11.06
2023-03-31T00:08:53.893Z,11.03
2023-03-31T00:11:57.855Z,10.93
2023-03-31T00:15:04.522Z,10.90
2023-03-31T00:18:08.602Z,10.87
2023-03-31T00:21:25.053Z,10.84
2023-03-31T00:24:32.755Z,10.86
2023-03-31T00:27:36.624Z,10.86
2023-03-31T00:30:41.076Z,10.78
2023-03-31T00:33:45.367Z,10.79
2023-03-31T00:36:49.220Z,10.79
2023-03-31T00:39:53.305Z,10.78
2023-03-31T00:42:57.012Z,10.78
2023-03-31T00:46:05.078Z,10.76
2023-03-31T00:49:14.413Z,10.73
2023-03-31T00:52:23.862Z,10.72
2023-03-31T00:55:30.920Z,10.72
2023-03-31T00:58:34.806Z,10.76
2023-03-31T01:01:43.164Z,10.81
2023-03-31T01:04:51.010Z,10.85
2023-03-31T01:07:55.833Z,10.82
2023-03-31T01:11:02.073Z,10.83
2023-03-31T01:14:05.971Z,10.81
2023-03-31T01:17:10.409Z,10.77
2023-03-31T01:20:35.512Z,10.71
2023-03-31T01:23:40.238Z,10.73
2023-03-31T01:26:44.184Z,10.77
2023-03-31T01:29:57.625Z,10.71
2023-03-31T01:33:16.585Z,10.62
2023-03-31T01:36:39.290Z,10.52
2023-03-31T01:39:46.214Z,10.50
2023-03-31T01:42:53.223Z,10.42
2023-03-31T01:46:12.681Z,10.32
2023-03-31T01:49:16.577Z,10.32
2023-03-31T01:52:33.358Z,10.25
2023-03-31T01:55:43.057Z,10.25
2023-03-31T01:58:54.352Z,10.23
2023-03-31T02:02:11.456Z,10.27
2023-03-31T02:05:17.609Z,10.27
2023-03-31T02:08:24.279Z,10.32
2023-03-31T02:11:28.887Z,10.36
2023-03-31T02:14:34.416Z,10.31
2023-03-31T02:17:40.506Z,10.39
2023-03-31T02:20:46.377Z,10.43
2023-03-31T02:23:51.768Z,10.45
2023-03-31T02:27:03.740Z,10.48
2023-03-31T02:30:08.850Z,10.46
2023-03-31T02:33:12.941Z,10.49
2023-03-31T02:36:17.547Z,10.57
2023-03-31T02:39:25.619Z,10.60
2023-03-31T02:42:37.110Z,10.62
2023-03-31T02:45:41.055Z,10.68
2023-03-31T02:48:48.226Z,10.70
2023-03-31T02:52:11.388Z,10.68
2023-03-31T02:55:16.556Z,10.67
2023-03-31T02:58:33.087Z,10.69
2023-03-31T03:01:37.427Z,10.73
2023-03-31T03:04:41.731Z,10.75
2023-03-31T03:07:45.547Z,10.74
2023-03-31T03:10:52.578Z,10.78
2023-03-31T03:14:13.344Z,10.76
2023-03-31T03:17:17.313Z,10.80
2023-03-31T03:20:22.020Z,10.81
2023-03-31T03:23:26.454Z,10.79
2023-03-31T03:26:30.628Z,10.77
2023-03-31T03:29:34.759Z,10.75
2023-03-31T03:32:38.749Z,10.76
2023-03-31T03:35:43.357Z,10.72
2023-03-31T03:38:47.248Z,10.69
2023-03-31T03:41:51.398Z,10.60
2023-03-31T03:44:55.371Z,10.58
2023-03-31T03:47:59.799Z,10.51
2023-03-31T03:51:04.526Z,10.52
2023-03-31T03:54:08.284Z,10.50
2023-03-31T03:57:11.919Z,10.47
2023-03-31T04:00:17.048Z,10.40
2023-03-31T04:03:21.411Z,10.47
2023-03-31T04:06:26.012Z,10.48
2023-03-31T04:09:30.094Z,10.53
2023-03-31T04:12:34.886Z,10.57
2023-03-31T04:15:39.031Z,10.60
2023-03-31T04:18:42.978Z,10.67
2023-03-31T04:21:50.715Z,10.68
2023-03-31T04:24:59.456Z,10.77
2023-03-31T04:28:34.808Z,10.79
2023-03-31T04:31:42.660Z,10.84
2023-03-31T04:34:46.831Z,10.85
2023-03-31T04:37:52.439Z,10.90
2023-03-31T04:40:56.298Z,10.94
2023-03-31T04:44:00.588Z,10.90
2023-03-31T04:47:06.926Z,10.91
2023-03-31T04:50:15.252Z,10.84
2023-03-31T04:53:20.706Z,10.84
2023-03-31T04:56:24.774Z,10.80
2023-03-31T04:59:28.597Z,10.73
2023-03-31T05:02:32.727Z,10.80
2023-03-31T05:05:37.412Z,10.85
2023-03-31T05:08:41.634Z,10.83
2023-03-31T05:11:45.565Z,10.85
2023-03-31T05:14:49.895Z,10.84
2023-03-31T05:17:54.300Z,10.88
2023-03-31T05:20:58.334Z,10.89
2023-03-31T05:24:02.289Z,10.97
2023-03-31T05:27:06.080Z,10.99
2023-03-31T05:30:10.366Z,10.97
2023-03-31T05:33:14.769Z,10.94
2023-03-31T05:36:19.065Z,10.97
2023-03-31T05:39:22.936Z,11.10
2023-03-31T05:42:26.765Z,11.11
2023-03-31T05:45:30.857Z,11.26
2023-03-31T05:48:34.863Z,11.37
2023-03-31T05:51:38.826Z,11.50
2023-03-31T05:54:42.902Z,11.69
2023-03-31T05:57:46.727Z,11.81
2023-03-31T06:00:53.887Z,11.91
2023-03-31T06:03:58.502Z,11.94
2023-03-31T06:07:02.609Z,11.98
2023-03-31T06:10:08.353Z,12.03
2023-03-31T06:13:12.569Z,12.06
2023-03-31T06:16:17.575Z,12.11
2023-03-31T06:19:21.953Z,12.07
2023-03-31T06:22:26.080Z,12.10
2023-03-31T06:25:43.806Z,12.04
2023-03-31T06:28:54.287Z,12.07
2023-03-31T06:31:58.688Z,11.97
2023-03-31T06:35:02.792Z,11.92
2023-03-31T06:38:07.174Z,11.87
2023-03-31T06:41:12.244Z,11.78
2023-03-31T06:44:16.753Z,11.85
2023-03-31T06:47:20.664Z,11.93
2023-03-31T06:50:24.609Z,12.06
2023-03-31T06:53:28.946Z,12.06
2023-03-31T06:56:33.259Z,12.27
2023-03-31T06:59:37.456Z,12.22
2023-03-31T07:02:41.465Z,12.30
2023-03-31T07:05:50.046Z,12.44
2023-03-31T07:08:54.241Z,12.58
2023-03-31T07:11:58.404Z,12.61
2023-03-31T07:15:02.606Z,12.60
2023-03-31T07:18:06.767Z,12.68
2023-03-31T07:21:11.034Z,12.71
2023-03-31T07:24:15.358Z,12.62
2023-03-31T07:27:19.575Z,12.58
2023-03-31T07:30:24.614Z,12.61
2023-03-31T07:33:28.399Z,12.63
2023-03-31T07:36:32.612Z,12.67
2023-03-31T07:39:37.334Z,12.72
2023-03-31T07:42:41.742Z,12.81
2023-03-31T07:45:46.508Z,12.99
2023-03-31T07:48:50.867Z,13.18
2023-03-31T07:51:54.517Z,13.35
2023-03-31T07:54:58.382Z,13.48
2023-03-31T07:58:02.201Z,13.52
2023-03-31T08:01:06.516Z,13.61
2023-03-31T08:04:12.490Z,13.72
2023-03-31T08:07:16.780Z,13.95
2023-03-31T08:10:22.966Z,14.17
2023-03-31T08:13:27.074Z,14.28
2023-03-31T08:16:31.041Z,14.31
2023-03-31T08:19:34.914Z,14.34
2023-03-31T08:22:39.490Z,14.39
2023-03-31T08:25:43.589Z,14.65
2023-03-31T08:28:49.280Z,14.69
2023-03-31T08:31:54.469Z,14.69
2023-03-31T08:34:59.008Z,14.54
2023-03-31T08:38:02.803Z,14.44
2023-03-31T08:41:07.817Z,14.18
2023-03-31T08:44:15.326Z,13.97
2023-03-31T08:47:21.348Z,13.73
2023-03-31T08:50:27.321Z,13.62
2023-03-31T08:53:34.887Z,13.55
2023-03-31T08:56:42.699Z,13.52
2023-03-31T08:59:47.325Z,13.45
2023-03-31T09:02:52.891Z,13.56
2023-03-31T09:06:06.501Z,13.53
2023-03-31T09:09:13.624Z,13.59
2023-03-31T09:12:21.097Z,13.61
2023-03-31T09:15:43.544Z,13.63
2023-03-31T09:18:47.551Z,13.50
2023-03-31T09:21:52.949Z,13.69
2023-03-31T09:25:10.953Z,13.71
2023-03-31T09:28:22.440Z,13.59
2023-03-31T09:31:27.102Z,13.69
2023-03-31T09:34:33.398Z,13.78
2023-03-31T09:37:36.964Z,13.83
2023-03-31T09:40:41.393Z,13.78
2023-03-31T09:43:46.356Z,13.73
2023-03-31T09:46:51.446Z,13.67
2023-03-31T09:49:55.573Z,13.57
2023-03-31T09:53:00.713Z,13.50
2023-03-31T09:56:08.440Z,13.38
2023-03-31T09:59:17.809Z,13.30
2023-03-31T10:02:27.715Z,13.40
2023-03-31T10:05:36.798Z,13.36
2023-03-31T10:08:40.891Z,13.28
2023-03-31T10:11:52.437Z,13.31
2023-03-31T10:15:02.862Z,13.09
2023-03-31T10:18:07.017Z,12.97
2023-03-31T10:21:40.486Z,12.94
2023-03-31T10:24:45.558Z,13.03
2023-03-31T10:27:52.093Z,12.87
2023-03-31T10:30:57.830Z,12.71
2023-03-31T10:34:07.696Z,12.71
2023-03-31T10:37:14.720Z,12.61
2023-03-31T10:40:23.584Z,12.64
2023-03-31T10:43:37.039Z,12.76
2023-03-31T10:46:42.131Z,12.77
2023-03-31T10:49:48.570Z,12.63
2023-03-31T10:52:52.590Z,12.55
2023-03-31T10:56:10.942Z,12.51
2023-03-31T10:59:33.467Z,12.42
2023-03-31T11:02:39.044Z,12.39
2023-03-31T11:05:46.369Z,12.39
2023-03-31T11:09:09.410Z,12.42
2023-03-31T11:12:29.510Z,12.32
2023-03-31T11:15:53.655Z,12.41
2023-03-31T11:19:16.298Z,12.32
2023-03-31T11:22:32.000Z,12.23
2023-03-31T11:25:36.075Z,12.19
2023-03-31T11:28:59.416Z,12.17
2023-03-31T11:32:06.394Z,12.27
2023-03-31T11:35:14.326Z,12.31
2023-03-31T11:38:31.189Z,12.25
2023-03-31T11:41:37.857Z,12.27
2023-03-31T11:44:45.919Z,12.29
2023-03-31T11:47:52.474Z,12.30
2023-03-31T11:50:57.371Z,12.03
2023-03-31T11:54:02.640Z,12.10
2023-03-31T11:57:21.833Z,12.12
2023-03-31T12:00:38.908Z,11.93
2023-03-31T12:04:01.604Z,12.07
2023-03-31T12:07:20.801Z,12.07
2023-03-31T12:10:38.579Z,12.19
2023-03-31T12:13:58.084Z,12.26
2023-03-31T12:17:09.855Z,12.24
2023-03-31T12:20:17.848Z,12.30
2023-03-31T12:23:23.553Z,12.40
2023-03-31T12:26:45.694Z,12.48
2023-03-31T12:29:49.800Z,12.66
2023-03-31T12:32:55.544Z,12.74
2023-03-31T12:36:20.108Z,12.77
2023-03-31T12:39:43.047Z,12.97
2023-03-31T12:42:46.676Z,13.03
2023-03-31T12:46:23.043Z,13.10
2023-03-31T12:49:30.406Z,13.13
2023-03-31T12:52:37.467Z,13.15
2023-03-31T12:55:41.568Z,13.25
2023-03-31T12:58:46.343Z,13.41
2023-03-31T13:02:09.222Z,13.70
2023-03-31T13:05:32.409Z,14.17
2023-03-31T13:08:54.749Z,14.47
2023-03-31T13:11:58.527Z,14.55
2023-03-31T13:15:04.068Z,14.54
2023-03-31T13:18:18.155Z,14.48
2023-03-31T13:21:23.237Z,14.39
2023-03-31T13:24:28.068Z,14.54
2023-03-31T13:27:35.666Z,14.60
2023-03-31T13:30:39.769Z,14.73
2023-03-31T13:34:02.320Z,14.79
2023-03-31T13:37:09.429Z,14.67
2023-03-31T13:40:30.832Z,14.78
2023-03-31T13:43:34.663Z,14.96
2023-03-31T13:46:54.604Z,14.84
2023-03-31T13:50:07.591Z,14.64
2023-03-31T13:53:23.858Z,14.65
2023-03-31T13:56:46.131Z,14.72
2023-03-31T13:59:58.896Z,14.88
2023-03-31T14:03:07.121Z,15.04
2023-03-31T14:06:17.046Z,15.16
2023-03-31T14:09:28.593Z,15.18
2023-03-31T14:12:33.935Z,15.05
2023-03-31T14:15:49.188Z,14.78
2023-03-31T14:18:58.963Z,14.50
2023-03-31T14:22:15.685Z,14.21
2023-03-31T14:25:19.790Z,13.98
2023-03-31T14:28:41.870Z,13.67
2023-03-31T14:31:54.258Z,13.57
2023-03-31T14:35:18.752Z,13.56
2023-03-31T14:38:23.179Z,13.49
2023-03-31T14:41:30.230Z,13.47
2023-03-31T14:44:34.565Z,12.89
2023-03-31T14:47:38.583Z,12.21
2023-03-31T14:50:43.512Z,11.93
2023-03-31T14:53:47.521Z,11.79
2023-03-31T14:56:55.373Z,11.63
2023-03-31T14:59:59.795Z,11.64
2023-03-31T15:03:05.885Z,11.80
2023-03-31T15:06:10.966Z,11.99
2023-03-31T15:09:27.859Z,12.17
2023-03-31T15:12:31.978Z,12.29
2023-03-31T15:15:36.360Z,12.34
2023-03-31T15:18:40.724Z,12.27
2023-03-31T15:21:45.883Z,12.28
2023-03-31T15:24:50.040Z,12.39
2023-03-31T15:27:56.462Z,12.57
2023-03-31T15:31:09.642Z,12.74
2023-03-31T15:34:33.197Z,12.86
2023-03-31T15:37:40.283Z,12.84
2023-03-31T15:40:45.162Z,12.73
2023-03-31T15:43:53.103Z,12.60
2023-03-31T15:47:20.552Z,12.44
2023-03-31T15:50:24.775Z,12.32
2023-03-31T15:53:39.092Z,12.26
2023-03-31T15:56:44.422Z,12.16
2023-03-31T16:02:57.988Z,12.15
2023-03-31T16:06:05.544Z,11.99
2023-03-31T16:09:12.397Z,11.85
2023-03-31T16:12:23.011Z,11.73
2023-03-31T16:15:32.144Z,11.57
2023-03-31T16:18:38.273Z,11.47
2023-03-31T16:21:44.657Z,11.45
2023-03-31T16:24:48.604Z,11.42
2023-03-31T16:27:56.356Z,11.49
2023-03-31T16:31:02.030Z,11.55
2023-03-31T16:34:10.008Z,11.51
2023-03-31T16:37:14.013Z,11.54
2023-03-31T16:40:21.124Z,11.59
2023-03-31T16:43:27.184Z,11.65
2023-03-31T16:46:31.374Z,11.65
2023-03-31T16:49:36.387Z,11.71
2023-03-31T16:52:40.938Z,11.65
2023-03-31T16:55:45.102Z,11.63
2023-03-31T16:58:49.224Z,11.53
2023-03-31T17:01:53.188Z,11.55
2023-03-31T17:05:06.240Z,11.51
2023-03-31T17:08:16.903Z,11.54
2023-03-31T17:11:24.655Z,11.63
2023-03-31T17:14:28.971Z,11.60
2023-03-31T17:17:33.210Z,11.56
2023-03-31T17:20:37.749Z,11.57
2023-03-31T17:23:42.784Z,11.46
2023-03-31T17:26:47.022Z,11.38
2023-03-31T17:29:50.926Z,11.36
2023-03-31T17:32:55.010Z,11.36
2023-03-31T17:35:58.903Z,11.39
2023-03-31T17:39:05.096Z,11.42
2023-03-31T17:42:19.372Z,11.49
2023-03-31T17:45:23.749Z,11.49
2023-03-31T17:48:27.939Z,11.44
2023-03-31T17:51:34.525Z,11.41
2023-03-31T17:54:39.094Z,11.42
2023-03-31T17:57:43.169Z,11.41
2023-03-31T18:00:46.867Z,11.44
2023-03-31T18:03:50.767Z,11.46
2023-03-31T18:06:54.928Z,11.50
2023-03-31T18:09:59.375Z,11.52
2023-03-31T18:13:03.773Z,11.57
2023-03-31T18:16:12.840Z,11.51
2023-03-31T18:19:17.047Z,11.63
2023-03-31T18:22:21.608Z,11.57
2023-03-31T18:25:25.708Z,11.57
2023-03-31T18:28:29.618Z,11.54
2023-03-31T18:31:34.086Z,11.51
2023-03-31T18:34:38.296Z,11.49
2023-03-31T18:37:42.504Z,11.46
2023-03-31T18:40:50.683Z,11.41
2023-03-31T18:43:55.258Z,11.40
2023-03-31T18:46:59.344Z,11.32
2023-03-31T18:50:03.241Z,11.31
2023-03-31T18:53:07.278Z,11.22
2023-03-31T18:56:11.006Z,11.16
2023-03-31T18:59:15.051Z,11.18
2023-03-31T19:02:19.206Z,11.17
2023-03-31T19:05:23.534Z,11.12
2023-03-31T19:08:27.246Z,11.05
2023-03-31T19:11:31.106Z,11.01
2023-03-31T19:14:36.534Z,10.98
2023-03-31T19:17:41.384Z,11.01
2023-03-31T19:20:46.899Z,11.05
2023-03-31T19:23:50.922Z,11.05
2023-03-31T19:26:56.546Z,11.01
2023-03-31T19:30:00.454Z,10.94
2023-03-31T19:33:04.676Z,10.94
2023-03-31T19:36:09.256Z,10.86
2023-03-31T19:39:13.446Z,10.90
2023-03-31T19:42:17.728Z,10.83
2023-03-31T19:45:21.833Z,10.91
2023-03-31T19:48:26.578Z,10.87
2023-03-31T19:51:30.677Z,10.91
2023-03-31T19:54:34.876Z,10.87
2023-03-31T19:57:38.860Z,10.88
2023-03-31T20:00:42.658Z,10.94
2023-03-31T20:03:46.935Z,10.89
2023-03-31T20:06:51.117Z,10.93
2023-03-31T20:09:54.850Z,10.92
2023-03-31T20:12:58.788Z,10.88
2023-03-31T20:16:05.899Z,10.90
2023-03-31T20:19:11.948Z,10.84
2023-03-31T20:22:16.117Z,10.94
2023-03-31T20:25:20.022Z,10.89
2023-03-31T20:28:23.928Z,10.83
2023-03-31T20:31:29.216Z,10.77
2023-03-31T20:34:34.028Z,10.79
2023-03-31T20:37:38.121Z,10.76
2023-03-31T20:40:46.851Z,10.75
2023-03-31T20:43:52.061Z,10.69
2023-03-31T20:46:58.923Z,10.60
2023-03-31T20:50:03.366Z,10.62
2023-03-31T20:53:07.071Z,10.59
2023-03-31T20:56:12.193Z,10.70
2023-03-31T20:59:16.488Z,10.68
2023-03-31T21:02:20.941Z,10.69
2023-03-31T21:05:24.847Z,10.60
2023-03-31T21:08:28.626Z,10.61
2023-03-31T21:11:33.066Z,10.66
2023-03-31T21:14:37.315Z,10.62
2023-03-31T21:17:41.255Z,10.59
2023-03-31T21:20:52.928Z,10.59
2023-03-31T21:23:56.964Z,10.60
2023-03-31T21:27:00.992Z,10.61
2023-03-31T21:30:05.742Z,10.60
2023-03-31T21:33:09.996Z,10.61
2023-03-31T21:36:15.359Z,10.56
2023-03-31T21:39:19.126Z,10.57
2023-03-31T21:42:24.148Z,10.57
2023-03-31T21:45:28.256Z,10.57
2023-03-31T21:48:33.301Z,10.55
2023-03-31T21:51:37.262Z,10.59
2023-03-31T21:54:41.003Z,10.61
2023-03-31T21:57:45.732Z,10.60
2023-03-31T22:00:49.440Z,10.57
2023-03-31T22:03:53.411Z,10.55
2023-03-31T22:06:57.991Z,10.53
2023-03-31T22:10:02.052Z,10.54
2023-03-31T22:13:06.302Z,10.58
2023-03-31T22:16:15.534Z,10.55
2023-03-31T22:19:19.793Z,10.52
2023-03-31T22:22:23.972Z,10.51
2023-03-31T22:25:28.198Z,10.53
2023-03-31T22:28:32.238Z,10.49
2023-03-31T22:31:36.603Z,10.49
2023-03-31T22:34:40.386Z,10.46
2023-03-31T22:37:44.445Z,10.40
2023-03-31T22:40:48.254Z,10.36
2023-03-31T22:43:52.098Z,10.35
2023-03-31T22:46:56.368Z,10.33
2023-03-31T22:50:00.312Z,10.33
2023-03-31T22:53:04.681Z,10.31
2023-03-31T22:56:10.614Z,10.26
2023-03-31T22:59:14.774Z,10.25
2023-03-31T23:02:18.522Z,10.23
2023-03-31T23:05:24.340Z,10.19
2023-03-31T23:08:28.511Z,10.17
2023-03-31T23:11:32.589Z,10.17
2023-03-31T23:14:37.069Z,10.15
2023-03-31T23:17:40.838Z,10.17
2023-03-31T23:20:44.843Z,10.15
2023-03-31T23:23:51.318Z,10.16
2023-03-31T23:26:55.557Z,10.11
2023-03-31T23:30:00.371Z,10.15
2023-03-31T23:33:04.414Z,10.13
2023-03-31T23:36:08.575Z,10.10
2023-03-31T23:39:12.647Z,10.14
2023-03-31T23:42:20.460Z,10.15
2023-03-31T23:45:24.521Z,10.14
2023-03-31T23:48:28.458Z,10.14
2023-03-31T23:51:32.241Z,10.17
2023-03-31T23:54:36.184Z,10.17
2023-03-31T23:57:41.371Z,10.17
